createdAt,value
2023-03-03T00:01:14.089Z,102243.28
2023-03-03T00:03:20.119Z,102233.81
2023-03-03T00:05:56.552Z,102231.25
2023-03-03T00:08:00.049Z,102233.81
2023-03-03T00:10:03.507Z,102234.69
2023-03-03T00:12:22.059Z,102228.66
2023-03-03T00:14:32.147Z,102232.09
2023-03-03T00:16:38.747Z,102223.50
2023-03-03T00:18:44.325Z,102222.66
2023-03-03T00:20:51.478Z,102229.53
2023-03-03T00:22:54.993Z,102223.47
2023-03-03T00:25:01.367Z,102228.63
2023-03-03T00:27:18.097Z,102228.63
2023-03-03T00:29:35.935Z,102223.47
2023-03-03T00:31:39.175Z,102226.91
2023-03-03T00:33:47.542Z,102228.66
2023-03-03T00:35:50.841Z,102225.19
2023-03-03T00:37:56.845Z,102230.34
2023-03-03T00:40:21.730Z,102235.53
2023-03-03T00:42:24.956Z,102228.66
2023-03-03T00:44:44.185Z,102226.94
2023-03-03T00:46:47.370Z,102234.69
2023-03-03T00:48:52.733Z,102231.25
2023-03-03T00:50:58.238Z,102226.09
2023-03-03T00:53:12.093Z,102230.38
2023-03-03T00:55:15.388Z,102226.94
2023-03-03T00:57:18.654Z,102232.09
2023-03-03T00:59:22.123Z,102222.66
2023-03-03T01:01:26.825Z,102229.53
2023-03-03T01:03:30.890Z,102234.69
2023-03-03T01:05:34.992Z,102226.09
2023-03-03T01:07:38.320Z,102227.81
2023-03-03T01:09:41.588Z,102233.81
2023-03-03T01:11:45.120Z,102227.81
2023-03-03T01:13:51.537Z,102232.97
2023-03-03T01:15:55.198Z,102232.97
2023-03-03T01:17:59.905Z,102230.38
2023-03-03T01:20:03.883Z,102228.66
2023-03-03T01:22:07.232Z,102230.38
2023-03-03T01:24:10.808Z,102226.09
2023-03-03T01:26:14.072Z,102226.09
2023-03-03T01:28:17.817Z,102222.66
2023-03-03T01:30:21.429Z,102220.94
2023-03-03T01:32:24.916Z,102214.91
2023-03-03T01:34:29.560Z,102210.63
2023-03-03T01:36:32.835Z,102205.47
2023-03-03T01:38:37.168Z,102195.16
2023-03-03T01:40:41.079Z,102199.44
2023-03-03T01:42:44.366Z,102204.59
2023-03-03T01:44:48.271Z,102202.00
2023-03-03T01:46:57.136Z,102202.00
2023-03-03T01:49:04.013Z,102192.56
2023-03-03T01:51:20.461Z,102201.16
2023-03-03T01:53:29.583Z,102197.72
2023-03-03T01:55:36.557Z,102195.16
2023-03-03T01:57:45.217Z,102191.72
2023-03-03T01:59:52.170Z,102199.44
2023-03-03T02:01:55.584Z,102196.00
2023-03-03T02:03:59.161Z,102199.44
2023-03-03T02:06:06.602Z,102196.88
2023-03-03T02:08:17.259Z,102199.47
2023-03-03T02:10:22.440Z,102199.47
2023-03-03T02:12:32.611Z,102198.59
2023-03-03T02:14:36.470Z,102200.31
2023-03-03T02:16:40.363Z,102190.88
2023-03-03T02:18:43.887Z,102197.75
2023-03-03T02:20:55.705Z,102194.31
2023-03-03T02:23:28.385Z,102194.31
2023-03-03T02:25:38.128Z,102195.16
2023-03-03T02:27:43.463Z,102193.44
2023-03-03T02:29:46.836Z,102196.00
2023-03-03T02:31:50.105Z,102193.44
2023-03-03T02:33:55.184Z,102196.88
2023-03-03T02:35:58.403Z,102196.88
2023-03-03T02:38:15.675Z,102197.72
2023-03-03T02:40:23.121Z,102194.28
2023-03-03T02:42:30.614Z,102198.56
2023-03-03T02:44:36.832Z,102192.56
2023-03-03T02:46:41.418Z,102186.53
2023-03-03T02:48:44.629Z,102189.97
2023-03-03T02:50:47.845Z,102194.28
2023-03-03T02:52:51.107Z,102190.84
2023-03-03T02:54:55.326Z,102196.84
2023-03-03T02:56:58.972Z,102192.56
2023-03-03T02:59:03.638Z,102190.84
2023-03-03T03:01:11.453Z,102197.69
2023-03-03T03:03:15.502Z,102189.13
2023-03-03T03:05:18.766Z,102202.00
2023-03-03T03:07:22.037Z,102204.59
2023-03-03T03:09:26.333Z,102204.59
2023-03-03T03:11:30.946Z,102207.16
2023-03-03T03:13:34.825Z,102208.00
2023-03-03T03:15:39.111Z,102213.13
2023-03-03T03:17:43.782Z,102214.88
2023-03-03T03:19:48.515Z,102214.00
2023-03-03T03:21:51.760Z,102206.28
2023-03-03T03:23:55.776Z,102206.28
2023-03-03T03:25:59.244Z,102210.56
2023-03-03T03:28:05.050Z,102214.88
2023-03-03T03:30:09.836Z,102208.00
2023-03-03T03:32:13.845Z,102211.44
2023-03-03T03:34:18.547Z,102211.44
2023-03-03T03:36:21.883Z,102199.41
2023-03-03T03:38:25.857Z,102200.28
2023-03-03T03:40:29.548Z,102190.84
2023-03-03T03:42:32.814Z,102196.84
2023-03-03T03:44:36.076Z,102204.59
2023-03-03T03:46:40.305Z,102207.16
2023-03-03T03:48:44.102Z,102221.75
2023-03-03T03:50:51.145Z,102200.28
2023-03-03T03:52:55.337Z,102202.00
2023-03-03T03:54:58.577Z,102212.28
2023-03-03T03:57:01.825Z,102204.56
2023-03-03T03:59:07.482Z,102201.13
2023-03-03T04:01:10.997Z,102195.94
2023-03-03T04:03:19.455Z,102195.94
2023-03-03T04:05:24.677Z,102190.78
2023-03-03T04:07:29.462Z,102200.22
2023-03-03T04:09:32.688Z,102189.91
2023-03-03T04:11:36.040Z,102187.31
2023-03-03T04:13:41.394Z,102183.88
2023-03-03T04:15:46.038Z,102183.88
2023-03-03T04:17:49.288Z,102175.31
2023-03-03T04:19:54.097Z,102192.47
2023-03-03T04:21:57.713Z,102191.63
2023-03-03T04:24:02.328Z,102183.91
2023-03-03T04:26:06.583Z,102184.78
2023-03-03T04:28:10.706Z,102185.63
2023-03-03T04:30:16.439Z,102182.22
2023-03-03T04:32:22.480Z,102179.63
2023-03-03T04:34:25.736Z,102194.22
2023-03-03T04:36:28.941Z,102193.34
2023-03-03T04:38:32.480Z,102194.22
2023-03-03T04:40:37.323Z,102192.50
2023-03-03T04:42:40.627Z,102187.38
2023-03-03T04:44:45.677Z,102195.97
2023-03-03T04:46:49.650Z,102179.66
2023-03-03T04:48:53.537Z,102172.78
2023-03-03T04:50:57.038Z,102177.94
2023-03-03T04:53:00.235Z,102180.50
2023-03-03T04:55:03.527Z,102185.66
2023-03-03T04:57:09.490Z,102187.38
2023-03-03T04:59:13.264Z,102186.53
2023-03-03T05:01:16.926Z,102196.81
2023-03-03T05:03:21.200Z,102187.38
2023-03-03T05:05:24.425Z,102194.25
2023-03-03T05:07:27.618Z,102185.66
2023-03-03T05:09:30.915Z,102193.41
2023-03-03T05:11:34.259Z,102187.38
2023-03-03T05:13:38.968Z,102190.84
2023-03-03T05:15:43.356Z,102193.41
2023-03-03T05:17:46.667Z,102192.56
2023-03-03T05:19:49.885Z,102191.69
2023-03-03T05:21:53.078Z,102199.44
2023-03-03T05:23:56.313Z,102192.56
2023-03-03T05:25:59.585Z,102194.28
2023-03-03T05:28:02.806Z,102188.28
2023-03-03T05:30:08.946Z,102193.41
2023-03-03T05:32:12.676Z,102196.00
2023-03-03T05:34:16.016Z,102189.13
2023-03-03T05:36:19.367Z,102192.56
2023-03-03T05:38:22.681Z,102194.28
2023-03-03T05:40:26.178Z,102189.97
2023-03-03T05:42:29.479Z,102198.56
2023-03-03T05:44:32.922Z,102202.84
2023-03-03T05:46:37.589Z,102202.84
2023-03-03T05:48:40.853Z,102206.25
2023-03-03T05:50:44.117Z,102203.69
2023-03-03T05:52:49.497Z,102196.81
2023-03-03T05:54:52.779Z,102189.09
2023-03-03T05:56:57.369Z,102202.84
2023-03-03T05:59:00.583Z,102201.13
2023-03-03T06:01:03.904Z,102185.69
2023-03-03T06:03:08.604Z,102197.69
2023-03-03T06:05:12.379Z,102201.13
2023-03-03T06:07:15.763Z,102195.13
2023-03-03T06:09:19.192Z,102192.56
2023-03-03T06:11:22.403Z,102202.84
2023-03-03T06:13:25.813Z,102213.13
2023-03-03T06:15:29.108Z,102219.16
2023-03-03T06:17:32.301Z,102226.88
2023-03-03T06:19:37.595Z,102229.44
2023-03-03T06:21:40.858Z,102235.44
2023-03-03T06:23:44.161Z,102226.88
2023-03-03T06:25:47.660Z,102228.59
2023-03-03T06:27:50.879Z,102228.59
2023-03-03T06:29:54.146Z,102226.91
2023-03-03T06:31:57.660Z,102231.19
2023-03-03T06:34:00.885Z,102231.19
2023-03-03T06:36:05.980Z,102235.50
2023-03-03T06:38:09.307Z,102232.03
2023-03-03T06:40:13.630Z,102242.34
2023-03-03T06:42:16.842Z,102242.34
2023-03-03T06:44:20.209Z,102256.97
2023-03-03T06:46:23.460Z,102252.66
2023-03-03T06:48:26.727Z,102249.22
2023-03-03T06:50:30.051Z,102244.91
2023-03-03T06:52:34.695Z,102247.50
2023-03-03T06:54:38.145Z,102247.47
2023-03-03T06:56:42.634Z,102248.34
2023-03-03T06:58:45.844Z,102247.50
2023-03-03T07:00:56.274Z,102250.94
2023-03-03T07:03:03.082Z,102251.78
2023-03-03T07:05:11.270Z,102253.50
2023-03-03T07:07:18.671Z,102244.91
2023-03-03T07:09:26.246Z,102257.78
2023-03-03T07:11:29.508Z,102259.50
2023-03-03T07:13:34.291Z,102258.66
2023-03-03T07:15:37.655Z,102263.81
2023-03-03T07:17:45.824Z,102258.66
2023-03-03T07:19:49.957Z,102266.41
2023-03-03T07:21:53.756Z,102264.69
2023-03-03T07:23:58.877Z,102279.28
2023-03-03T07:26:03.569Z,102262.97
2023-03-03T07:28:26.230Z,102275.00
2023-03-03T07:30:30.824Z,102281.91
2023-03-03T07:32:41.246Z,102281.91
2023-03-03T07:34:47.812Z,102280.19
2023-03-03T07:36:54.832Z,102278.47
2023-03-03T07:39:01.400Z,102280.16
2023-03-03T07:41:13.108Z,102282.75
2023-03-03T07:43:31.615Z,102270.75
2023-03-03T07:45:38.997Z,102271.63
2023-03-03T07:47:42.418Z,102273.34
2023-03-03T07:49:45.801Z,102269.91
2023-03-03T07:51:53.827Z,102278.50
2023-03-03T07:54:14.508Z,102272.47
2023-03-03T07:56:35.534Z,102277.63
2023-03-03T07:58:40.705Z,102275.91
2023-03-03T08:01:29.311Z,102282.81
2023-03-03T08:03:36.996Z,102270.75
2023-03-03T08:05:42.340Z,102271.63
2023-03-03T08:07:45.687Z,102282.78
2023-03-03T08:09:51.218Z,102285.38
2023-03-03T08:12:00.602Z,102277.63
2023-03-03T08:14:12.280Z,102278.50
2023-03-03T08:16:36.561Z,102276.75
2023-03-03T08:18:43.702Z,102276.75
2023-03-03T08:20:48.588Z,102273.31
2023-03-03T08:22:51.901Z,102270.72
2023-03-03T08:24:55.236Z,102272.44
2023-03-03T08:26:59.949Z,102271.56
2023-03-03T08:29:03.793Z,102273.28
2023-03-03T08:31:18.395Z,102269.84
2023-03-03T08:33:25.882Z,102256.91
2023-03-03T08:35:29.406Z,102262.06
2023-03-03T08:37:32.759Z,102261.19
2023-03-03T08:39:36.160Z,102262.91
2023-03-03T08:41:40.794Z,102268.06
2023-03-03T08:43:45.799Z,102257.72
2023-03-03T08:45:50.488Z,102252.56
2023-03-03T08:47:54.150Z,102254.22
2023-03-03T08:49:58.742Z,102254.22
2023-03-03T08:52:01.994Z,102251.63
2023-03-03T08:54:05.490Z,102253.31
2023-03-03T08:56:10.215Z,102257.63
2023-03-03T08:58:13.542Z,102267.94
2023-03-03T09:00:20.967Z,102259.34
2023-03-03T09:02:24.301Z,102257.59
2023-03-03T09:04:27.746Z,102259.28
2023-03-03T09:06:31.139Z,102264.44
2023-03-03T09:08:34.448Z,102260.97
2023-03-03T09:10:37.849Z,102260.09
2023-03-03T09:12:43.690Z,102272.13
2023-03-03T09:14:48.386Z,102276.34
2023-03-03T09:16:55.326Z,102274.63
2023-03-03T09:18:58.559Z,102278.03
2023-03-03T09:21:01.897Z,102277.13
2023-03-03T09:23:26.754Z,102277.13
2023-03-03T09:25:34.471Z,102270.19
2023-03-03T09:27:38.540Z,102281.34
2023-03-03T09:29:42.513Z,102283.03
2023-03-03T09:31:47.526Z,102269.19
2023-03-03T09:33:57.969Z,102277.72
2023-03-03T09:36:07.364Z,102282.00
2023-03-03T09:38:25.784Z,102284.59
2023-03-03T09:40:50.065Z,102286.28
2023-03-03T09:43:04.184Z,102288.81
2023-03-03T09:45:46.102Z,102289.59
2023-03-03T09:48:03.910Z,102284.38
2023-03-03T09:50:19.553Z,102280.88
2023-03-03T09:52:34.587Z,102277.38
2023-03-03T09:54:54.309Z,102282.53
2023-03-03T09:57:06.303Z,102285.91
2023-03-03T09:59:24.270Z,102278.97
2023-03-03T10:01:56.794Z,102282.31
2023-03-03T10:04:14.404Z,102278.72
2023-03-03T10:06:26.589Z,102280.38
2023-03-03T10:08:47.367Z,102283.75
2023-03-03T10:11:00.786Z,102278.47
2023-03-03T10:13:16.864Z,102280.13
2023-03-03T10:15:40.522Z,102280.13
2023-03-03T10:17:52.431Z,102278.34
2023-03-03T10:20:13.469Z,102272.25
2023-03-03T10:22:25.705Z,102274.81
2023-03-03T10:24:31.711Z,102266.06
2023-03-03T10:27:12.635Z,102273.69
2023-03-03T10:29:23.824Z,102269.22
2023-03-03T10:31:38.367Z,102269.06
2023-03-03T10:33:50.894Z,102268.16
2023-03-03T10:36:18.259Z,102263.81
2023-03-03T10:38:38.232Z,102259.47
2023-03-03T10:40:48.300Z,102264.59
2023-03-03T10:43:30.976Z,102268.91
2023-03-03T10:45:49.311Z,102260.22
2023-03-03T10:48:08.836Z,102265.34
2023-03-03T10:50:22.367Z,102266.13
2023-03-03T10:52:35.036Z,102272.19
2023-03-03T10:54:53.023Z,102265.31
2023-03-03T10:57:04.918Z,102267.06
2023-03-03T10:59:21.866Z,102259.28
2023-03-03T11:01:36.087Z,102254.97
2023-03-03T11:04:05.255Z,102259.34
2023-03-03T11:06:15.224Z,102252.41
2023-03-03T11:08:25.261Z,102252.41
2023-03-03T11:10:47.682Z,102246.38
2023-03-03T11:13:03.414Z,102251.50
2023-03-03T11:15:24.316Z,102244.56
2023-03-03T11:17:37.415Z,102242.72
2023-03-03T11:20:04.925Z,102237.50
2023-03-03T11:22:21.470Z,102244.41
2023-03-03T11:24:41.533Z,102239.22
2023-03-03T11:26:59.309Z,102232.31
2023-03-03T11:29:16.503Z,102228.91
2023-03-03T11:31:31.359Z,102233.22
2023-03-03T11:33:41.642Z,102227.06
2023-03-03T11:35:51.004Z,102232.16
2023-03-03T11:38:09.675Z,102232.06
2023-03-03T11:40:18.342Z,102227.72
2023-03-03T11:42:27.988Z,102228.50
2023-03-03T11:44:34.624Z,102217.19
2023-03-03T11:46:43.865Z,102217.09
2023-03-03T11:48:55.560Z,102211.81
2023-03-03T11:51:03.268Z,102215.19
2023-03-03T11:53:19.396Z,102205.47
2023-03-03T11:55:28.617Z,102201.78
2023-03-03T11:57:41.833Z,102201.56
2023-03-03T12:00:04.325Z,102195.31
2023-03-03T12:02:26.698Z,102184.72
2023-03-03T12:04:35.953Z,102183.56
2023-03-03T12:06:52.757Z,102176.41
2023-03-03T12:09:12.427Z,102171.78
2023-03-03T12:11:24.238Z,102169.81
2023-03-03T12:13:38.281Z,102171.34
2023-03-03T12:15:50.067Z,102165.06
2023-03-03T12:18:21.509Z,102170.97
2023-03-03T12:20:33.757Z,102156.84
2023-03-03T12:22:43.414Z,102157.63
2023-03-03T12:25:19.171Z,102161.13
2023-03-03T12:27:30.566Z,102159.44
2023-03-03T12:29:46.777Z,102153.50
2023-03-03T12:31:54.990Z,102163.94
2023-03-03T12:34:03.468Z,102143.28
2023-03-03T12:36:22.662Z,102149.47
2023-03-03T12:38:37.306Z,102146.13
2023-03-03T12:40:47.160Z,102143.59
2023-03-03T12:43:08.925Z,102137.50
2023-03-03T12:45:25.047Z,102133.94
2023-03-03T12:47:34.667Z,102125.16
2023-03-03T12:49:48.078Z,102130.22
2023-03-03T12:52:24.358Z,102130.78
2023-03-03T12:54:43.247Z,102129.69
2023-03-03T12:56:54.189Z,102132.13
2023-03-03T12:59:04.774Z,102123.25
2023-03-03T13:01:23.924Z,102118.75
2023-03-03T13:03:49.662Z,102122.88
2023-03-03T13:06:02.978Z,102106.22
2023-03-03T13:08:29.417Z,102104.41
2023-03-03T13:10:40.049Z,102097.44
2023-03-03T13:12:46.720Z,102099.03
2023-03-03T13:14:56.359Z,102102.47
2023-03-03T13:17:11.579Z,102092.03
2023-03-03T13:19:22.111Z,102091.19
2023-03-03T13:21:31.988Z,102090.41
2023-03-03T13:23:52.266Z,102098.38
2023-03-03T13:25:58.922Z,102092.41
2023-03-03T13:28:08.497Z,102088.91
2023-03-03T13:30:18.597Z,102093.16
2023-03-03T13:32:25.219Z,102097.38
2023-03-03T13:34:40.779Z,102093.84
2023-03-03T13:36:52.788Z,102090.34
2023-03-03T13:39:01.406Z,102088.53
2023-03-03T13:41:11.705Z,102085.03
2023-03-03T13:43:20.475Z,102081.59
2023-03-03T13:45:28.390Z,102088.53
2023-03-03T13:47:44.627Z,102080.72
2023-03-03T13:50:08.894Z,102078.22
2023-03-03T13:52:16.760Z,102074.72
2023-03-03T13:54:45.759Z,102075.56
2023-03-03T13:57:15.883Z,102073.84
2023-03-03T13:59:30.873Z,102069.50
2023-03-03T14:01:48.422Z,102073.00
2023-03-03T14:04:16.177Z,102073.91
2023-03-03T14:06:21.194Z,102061.00
2023-03-03T14:08:45.083Z,102068.00
2023-03-03T14:10:57.282Z,102064.66
2023-03-03T14:13:05.801Z,102054.28
2023-03-03T14:15:17.784Z,102061.25
2023-03-03T14:17:34.537Z,102054.31
2023-03-03T14:19:44.271Z,102042.28
2023-03-03T14:21:55.984Z,102043.19
2023-03-03T14:24:09.342Z,102038.06
2023-03-03T14:26:13.603Z,102030.34
2023-03-03T14:28:20.098Z,102032.97
2023-03-03T14:30:32.712Z,102035.56
2023-03-03T14:32:45.087Z,102028.59
2023-03-03T14:35:00.144Z,102032.91
2023-03-03T14:37:23.322Z,102026.75
2023-03-03T14:39:33.250Z,102018.06
2023-03-03T14:41:40.466Z,102019.75
2023-03-03T14:43:46.467Z,102027.59
2023-03-03T14:45:49.807Z,102014.63
2023-03-03T14:47:53.270Z,102018.09
2023-03-03T14:50:00.213Z,102011.13
2023-03-03T14:52:09.509Z,102012.84
2023-03-03T14:54:22.595Z,102013.66
2023-03-03T14:56:29.509Z,102001.53
2023-03-03T14:58:39.831Z,102004.19
2023-03-03T15:00:43.187Z,102007.69
2023-03-03T15:03:00.492Z,101996.50
2023-03-03T15:05:26.666Z,101998.34
2023-03-03T15:07:35.023Z,101990.59
2023-03-03T15:09:43.222Z,101992.38
2023-03-03T15:11:46.870Z,101988.97
2023-03-03T15:13:50.951Z,101989.06
2023-03-03T15:16:03.947Z,101982.19
2023-03-03T15:18:13.656Z,101984.03
2023-03-03T15:20:35.834Z,101987.56
2023-03-03T15:22:50.352Z,101984.16
2023-03-03T15:25:02.302Z,101989.44
2023-03-03T15:27:12.269Z,101980.03
2023-03-03T15:29:23.636Z,101986.22
2023-03-03T15:31:36.232Z,102000.19
2023-03-03T15:33:48.373Z,101978.63
2023-03-03T15:35:58.991Z,101970.09
2023-03-03T15:38:09.722Z,101966.72
2023-03-03T15:40:25.767Z,101974.56
2023-03-03T15:42:35.837Z,101966.88
2023-03-03T15:44:57.685Z,101966.94
2023-03-03T15:47:21.995Z,101959.22
2023-03-03T15:49:44.577Z,101959.31
2023-03-03T15:52:21.567Z,101973.22
2023-03-03T15:54:45.970Z,101975.94
2023-03-03T15:56:53.441Z,101956.13
2023-03-03T15:59:21.867Z,101954.50
2023-03-03T16:01:28.747Z,101959.78
2023-03-03T16:03:37.465Z,101951.19
2023-03-03T16:05:48.683Z,101948.63
2023-03-03T16:08:01.932Z,101953.84
2023-03-03T16:10:16.255Z,101954.75
2023-03-03T16:12:27.553Z,101954.75
2023-03-03T16:14:52.377Z,101964.31
2023-03-03T16:17:03.429Z,101951.41
2023-03-03T16:19:19.163Z,101958.38
2023-03-03T16:21:30.076Z,101976.59
2023-03-03T16:23:47.297Z,101968.84
2023-03-03T16:26:17.150Z,101955.03
2023-03-03T16:28:27.032Z,101962.88
2023-03-03T16:30:36.096Z,101955.13
2023-03-03T16:32:43.881Z,101960.41
2023-03-03T16:34:57.337Z,101969.09
2023-03-03T16:37:13.848Z,101955.28
2023-03-03T16:39:24.510Z,101968.28
2023-03-03T16:41:38.253Z,101961.38
2023-03-03T16:44:03.174Z,101952.75
2023-03-03T16:46:19.307Z,101953.66
2023-03-03T16:48:27.358Z,101959.72
2023-03-03T16:50:41.868Z,101960.63
2023-03-03T16:52:50.971Z,101959.75
2023-03-03T16:54:58.359Z,101963.25
2023-03-03T16:57:09.972Z,101967.59
2023-03-03T16:59:35.047Z,101969.38
2023-03-03T17:01:50.723Z,101969.38
2023-03-03T17:04:16.128Z,101973.75
2023-03-03T17:06:24.778Z,101975.47
2023-03-03T17:08:49.597Z,101966.88
2023-03-03T17:11:03.832Z,101969.50
2023-03-03T17:13:29.556Z,101983.38
2023-03-03T17:15:44.836Z,101973.06
2023-03-03T17:17:55.728Z,101971.34
2023-03-03T17:20:12.811Z,101966.22
2023-03-03T17:22:24.356Z,101970.56
2023-03-03T17:24:33.621Z,101964.53
2023-03-03T17:27:02.464Z,101957.63
2023-03-03T17:29:30.665Z,101961.13
2023-03-03T17:31:42.317Z,101963.75
2023-03-03T17:34:09.672Z,101962.91
2023-03-03T17:36:31.102Z,101971.59
2023-03-03T17:38:48.145Z,101957.78
2023-03-03T17:40:59.920Z,101972.50
2023-03-03T17:43:10.227Z,101969.94
2023-03-03T17:45:15.085Z,101964.75
2023-03-03T17:47:28.982Z,101963.03
2023-03-03T17:50:13.956Z,101953.53
2023-03-03T17:52:59.405Z,101966.53
2023-03-03T17:55:18.496Z,101970.00
2023-03-03T17:57:43.324Z,101969.13
2023-03-03T18:00:01.077Z,101963.09
2023-03-03T18:02:30.439Z,101964.81
2023-03-03T18:05:01.056Z,101963.09
2023-03-03T18:07:43.006Z,101962.22
2023-03-03T18:10:27.514Z,101960.50
2023-03-03T18:12:39.364Z,101961.34
2023-03-03T18:15:05.367Z,101964.81
2023-03-03T18:17:24.186Z,101964.81
2023-03-03T18:19:52.518Z,101960.47
2023-03-03T18:22:00.946Z,101964.78
2023-03-03T18:24:31.131Z,101971.72
2023-03-03T18:26:39.336Z,101974.28
2023-03-03T18:28:47.961Z,101963.91
2023-03-03T18:31:00.745Z,101957.91
2023-03-03T18:33:09.996Z,101959.63
2023-03-03T18:35:28.140Z,101956.19
2023-03-03T18:37:39.699Z,101964.88
2023-03-03T18:39:45.692Z,101945.88
2023-03-03T18:42:18.708Z,101943.34
2023-03-03T18:44:31.005Z,101939.97
2023-03-03T18:46:55.972Z,101942.63
2023-03-03T18:49:03.535Z,101944.41
2023-03-03T18:51:09.414Z,101947.94
2023-03-03T18:53:26.647Z,101945.41
2023-03-03T18:55:41.158Z,101943.75
2023-03-03T18:58:03.711Z,101942.88
2023-03-03T19:00:34.833Z,101943.81
2023-03-03T19:02:49.679Z,101953.34
2023-03-03T19:04:56.146Z,101949.03
2023-03-03T19:07:26.402Z,101949.91
2023-03-03T19:09:49.438Z,101945.59
2023-03-03T19:11:55.892Z,101942.16
2023-03-03T19:14:16.497Z,101946.50
2023-03-03T19:16:31.756Z,101932.69
2023-03-03T19:18:37.524Z,101935.34
2023-03-03T19:20:43.052Z,101931.97
2023-03-03T19:22:50.801Z,101945.00
2023-03-03T19:25:18.427Z,101933.81
2023-03-03T19:27:32.979Z,101941.66
2023-03-03T19:30:00.181Z,101929.63
2023-03-03T19:32:18.892Z,101933.97
2023-03-03T19:34:38.081Z,101933.16
2023-03-03T19:36:55.369Z,101927.16
2023-03-03T19:39:15.562Z,101928.03
2023-03-03T19:41:28.674Z,101937.59
2023-03-03T19:43:47.075Z,101941.97
2023-03-03T19:46:05.566Z,101931.59
2023-03-03T19:48:19.128Z,101945.44
2023-03-03T19:50:34.515Z,101947.16
2023-03-03T19:52:43.534Z,101936.72
2023-03-03T19:55:00.184Z,101936.69
2023-03-03T19:57:07.317Z,101929.75
2023-03-03T19:59:23.832Z,101935.75
2023-03-03T20:01:33.097Z,101946.09
2023-03-03T20:03:54.637Z,101931.41
2023-03-03T20:06:14.702Z,101931.34
2023-03-03T20:08:29.215Z,101934.81
2023-03-03T20:10:44.716Z,101936.53
2023-03-03T20:13:00.344Z,101934.75
2023-03-03T20:15:12.426Z,101931.28
2023-03-03T20:17:33.339Z,101923.44
2023-03-03T20:19:51.329Z,101928.63
2023-03-03T20:22:06.039Z,101927.72
2023-03-03T20:24:35.789Z,101928.59
2023-03-03T20:26:46.520Z,101925.97
2023-03-03T20:29:14.216Z,101935.41
2023-03-03T20:31:23.105Z,101926.78
2023-03-03T20:33:40.100Z,101927.59
2023-03-03T20:35:51.940Z,101925.78
2023-03-03T20:38:09.013Z,101929.22
2023-03-03T20:40:23.280Z,101925.75
2023-03-03T20:42:40.202Z,101926.56
2023-03-03T20:44:57.392Z,101924.81
2023-03-03T20:47:08.824Z,101930.00
2023-03-03T20:49:26.338Z,101934.28
2023-03-03T20:51:39.663Z,101938.56
2023-03-03T20:53:52.354Z,101941.13
2023-03-03T20:56:05.862Z,101922.06
2023-03-03T20:58:15.707Z,101930.66
2023-03-03T21:00:25.640Z,101915.94
2023-03-03T21:02:36.920Z,101918.50
2023-03-03T21:04:40.265Z,101915.88
2023-03-03T21:06:43.527Z,101922.78
2023-03-03T21:08:54.361Z,101924.50
2023-03-03T21:10:58.809Z,101915.81
2023-03-03T21:13:29.386Z,101921.78
2023-03-03T21:15:35.729Z,101918.28
2023-03-03T21:17:38.977Z,101918.25
2023-03-03T21:19:42.191Z,101914.81
2023-03-03T21:21:46.612Z,101916.50
2023-03-03T21:23:51.972Z,101916.50
2023-03-03T21:25:56.492Z,101906.13
2023-03-03T21:28:15.326Z,101914.81
2023-03-03T21:30:19.031Z,101902.72
2023-03-03T21:32:37.739Z,101909.63
2023-03-03T21:34:43.050Z,101899.25
2023-03-03T21:36:47.548Z,101900.19
2023-03-03T21:38:53.120Z,101903.66
2023-03-03T21:41:01.025Z,101897.63
2023-03-03T21:43:04.646Z,101898.47
2023-03-03T21:45:14.042Z,101901.09
2023-03-03T21:47:18.739Z,101895.91
2023-03-03T21:49:22.122Z,101895.91
2023-03-03T21:51:26.266Z,101889.91
2023-03-03T21:53:30.620Z,101882.09
2023-03-03T21:55:35.615Z,101898.56
2023-03-03T21:57:38.972Z,101883.88
2023-03-03T21:59:42.617Z,101888.22
2023-03-03T22:01:46.057Z,101880.47
2023-03-03T22:03:49.471Z,101888.25
2023-03-03T22:05:53.723Z,101889.16
2023-03-03T22:07:57.177Z,101871.88
2023-03-03T22:10:00.546Z,101893.47
2023-03-03T22:12:06.122Z,101887.44
2023-03-03T22:14:09.792Z,101875.34
2023-03-03T22:16:13.288Z,101875.34
2023-03-03T22:18:18.613Z,101883.13
2023-03-03T22:20:22.201Z,101874.50
2023-03-03T22:22:25.717Z,101875.34
2023-03-03T22:24:28.974Z,101877.94
2023-03-03T22:26:32.737Z,101883.13
2023-03-03T22:28:37.691Z,101880.53
2023-03-03T22:30:41.089Z,101878.84
2023-03-03T22:32:44.256Z,101876.19
2023-03-03T22:34:47.658Z,101872.72
2023-03-03T22:36:50.896Z,101868.38
2023-03-03T22:38:54.255Z,101867.50
2023-03-03T22:40:57.532Z,101871.78
2023-03-03T22:43:01.242Z,101877.00
2023-03-03T22:45:06.818Z,101865.72
2023-03-03T22:47:10.104Z,101860.50
2023-03-03T22:49:13.310Z,101861.34
2023-03-03T22:51:18.308Z,101855.25
2023-03-03T22:53:22.614Z,101857.88
2023-03-03T22:55:25.864Z,101876.00
2023-03-03T22:57:29.167Z,101862.97
2023-03-03T22:59:32.728Z,101862.88
2023-03-03T23:01:37.354Z,101859.41
2023-03-03T23:03:40.690Z,101867.16
2023-03-03T23:05:44.498Z,101858.44
2023-03-03T23:07:47.853Z,101861.81
2023-03-03T23:09:51.085Z,101850.50
2023-03-03T23:11:54.376Z,101853.91
2023-03-03T23:13:57.633Z,101870.28
2023-03-03T23:16:02.540Z,101853.78
2023-03-03T23:18:07.210Z,101858.91
2023-03-03T23:20:12.576Z,101860.59
2023-03-03T23:22:16.255Z,101870.88
2023-03-03T23:24:19.889Z,101850.94
2023-03-03T23:26:23.039Z,101853.44
2023-03-03T23:28:26.745Z,101859.47
2023-03-03T23:30:30.035Z,101849.88
2023-03-03T23:32:33.274Z,101837.72
2023-03-03T23:34:37.960Z,101842.91
2023-03-03T23:36:41.326Z,101839.41
2023-03-03T23:38:44.622Z,101835.94
2023-03-03T23:40:47.879Z,101835.94
2023-03-03T23:42:51.189Z,101837.63
2023-03-03T23:44:54.768Z,101834.16
2023-03-03T23:46:58.065Z,101839.34
2023-03-03T23:49:02.142Z,101834.13
2023-03-03T23:51:07.199Z,101830.63
2023-03-03T23:53:10.585Z,101829.72
2023-03-03T23:55:13.899Z,101828.00
2023-03-03T23:57:17.402Z,101834.00
2023-03-03T23:59:20.699Z,101820.13
